createdAt,value
2022-09-13T00:00:50.099Z,74.38
2022-09-13T00:03:18.778Z,75.03
2022-09-13T00:05:47.205Z,75.23
2022-09-13T00:08:15.635Z,75.21
2022-09-13T00:10:46.631Z,75.14
2022-09-13T00:13:15.925Z,75.24
2022-09-13T00:15:45.649Z,74.88
2022-09-13T00:18:13.940Z,74.74
2022-09-13T00:20:42.255Z,74.74
2022-09-13T00:23:11.200Z,74.88
2022-09-13T00:25:39.675Z,74.84
2022-09-13T00:28:09.494Z,75.25
2022-09-13T00:30:38.040Z,75.13
2022-09-13T00:33:06.063Z,75.14
2022-09-13T00:35:34.049Z,75.08
2022-09-13T00:38:02.263Z,75.79
2022-09-13T00:40:31.207Z,75.75
2022-09-13T00:42:59.175Z,75.58
2022-09-13T00:45:28.731Z,75.52
2022-09-13T00:48:00.487Z,75.39
2022-09-13T00:50:34.979Z,75.75
2022-09-13T00:53:07.088Z,75.78
2022-09-13T00:55:41.203Z,75.61
2022-09-13T00:58:14.412Z,75.93
2022-09-13T01:00:45.264Z,75.90
2022-09-13T01:03:16.729Z,76.49
2022-09-13T01:05:48.663Z,76.32
2022-09-13T01:08:23.074Z,75.96
2022-09-13T01:10:52.801Z,75.69
2022-09-13T01:13:23.334Z,76.03
2022-09-13T01:15:53.169Z,76.05
2022-09-13T01:18:21.763Z,76.35
2022-09-13T01:21:29.974Z,75.98
2022-09-13T01:24:23.463Z,76.09
2022-09-13T01:27:23.063Z,76.27
2022-09-13T01:30:06.486Z,75.99
2022-09-13T01:32:49.860Z,76.60
2022-09-13T01:35:29.569Z,76.42
2022-09-13T01:38:07.917Z,76.36
2022-09-13T01:40:51.019Z,76.43
2022-09-13T01:43:28.736Z,76.62
2022-09-13T01:46:06.306Z,76.47
2022-09-13T01:48:49.506Z,76.34
2022-09-13T01:51:24.714Z,76.36
2022-09-13T01:54:06.530Z,76.61
2022-09-13T01:56:41.934Z,76.48
2022-09-13T01:59:17.644Z,76.67
2022-09-13T02:01:54.309Z,76.44
2022-09-13T02:04:25.659Z,77.10
2022-09-13T02:07:02.330Z,77.31
2022-09-13T02:09:34.478Z,76.85
2022-09-13T02:12:07.813Z,76.71
2022-09-13T02:14:39.419Z,77.25
2022-09-13T02:17:13.587Z,76.77
2022-09-13T02:19:46.221Z,77.17
2022-09-13T02:22:18.288Z,77.70
2022-09-13T02:24:49.499Z,77.21
2022-09-13T02:27:21.544Z,77.02
2022-09-13T02:29:54.456Z,77.51
2022-09-13T02:32:28.555Z,77.90
2022-09-13T02:35:01.331Z,77.37
2022-09-13T02:37:32.429Z,77.58
2022-09-13T02:40:05.633Z,77.60
2022-09-13T02:42:41.824Z,77.63
2022-09-13T02:45:11.108Z,77.64
2022-09-13T02:47:46.500Z,77.68
2022-09-13T02:50:28.324Z,77.80
2022-09-13T02:53:05.590Z,78.12
2022-09-13T02:55:43.744Z,77.86
2022-09-13T02:58:18.197Z,77.85
2022-09-13T03:00:47.298Z,78.25
2022-09-13T03:03:18.018Z,77.86
2022-09-13T03:05:46.062Z,78.39
2022-09-13T03:08:16.612Z,78.31
2022-09-13T03:10:56.613Z,78.82
2022-09-13T03:13:41.177Z,78.39
2022-09-13T03:16:24.649Z,78.19
2022-09-13T03:19:07.856Z,78.09
2022-09-13T03:21:55.214Z,78.56
2022-09-13T03:24:26.483Z,78.70
2022-09-13T03:27:07.998Z,79.06
2022-09-13T03:29:46.839Z,78.75
2022-09-13T03:32:24.378Z,78.82
2022-09-13T03:35:03.603Z,78.37
2022-09-13T03:37:37.884Z,78.61
2022-09-13T03:40:11.572Z,78.90
2022-09-13T03:42:45.288Z,78.70
2022-09-13T03:45:15.588Z,78.64
2022-09-13T03:47:47.450Z,78.86
2022-09-13T03:50:24.770Z,79.15
2022-09-13T03:52:57.433Z,78.35
2022-09-13T03:55:26.192Z,78.34
2022-09-13T03:57:54.169Z,78.67
2022-09-13T04:00:22.664Z,78.95
2022-09-13T04:02:51.070Z,78.55
2022-09-13T04:05:20.365Z,78.61
2022-09-13T04:07:48.421Z,78.47
2022-09-13T04:10:16.557Z,78.96
2022-09-13T04:12:44.706Z,79.06
2022-09-13T04:15:12.670Z,78.60
2022-09-13T04:17:40.684Z,79.52
2022-09-13T04:20:09.292Z,79.46
2022-09-13T04:22:38.708Z,79.77
2022-09-13T04:25:07.646Z,79.56
2022-09-13T04:27:36.725Z,79.23
2022-09-13T04:30:05.212Z,79.87
2022-09-13T04:32:33.755Z,79.07
2022-09-13T04:35:01.740Z,80.27
2022-09-13T04:37:29.812Z,79.43
2022-09-13T04:39:59.182Z,80.26
2022-09-13T04:42:27.203Z,79.15
2022-09-13T04:44:55.797Z,80.05
2022-09-13T04:47:23.989Z,79.82
2022-09-13T04:49:51.977Z,79.81
2022-09-13T04:52:20.030Z,79.94
2022-09-13T04:54:48.706Z,79.81
2022-09-13T04:57:18.032Z,80.79
2022-09-13T04:59:46.019Z,80.75
2022-09-13T05:02:14.109Z,80.31
2022-09-13T05:04:42.188Z,80.60
2022-09-13T05:07:10.158Z,80.51
2022-09-13T05:09:38.245Z,80.06
2022-09-13T05:16:45.080Z,80.64
2022-09-13T05:19:14.123Z,80.42
2022-09-13T05:21:42.343Z,79.96
2022-09-13T05:24:10.843Z,80.20
2022-09-13T05:26:39.601Z,80.34
2022-09-13T05:29:07.752Z,79.88
2022-09-13T05:31:38.349Z,79.70
2022-09-13T05:34:11.781Z,79.93
2022-09-13T05:36:40.486Z,79.76
2022-09-13T05:39:29.639Z,79.65
2022-09-13T05:42:02.234Z,80.32
2022-09-13T05:44:30.503Z,79.85
2022-09-13T05:46:59.129Z,79.90
2022-09-13T05:49:28.843Z,80.07
2022-09-13T05:51:57.242Z,80.48
2022-09-13T05:54:25.596Z,80.34
2022-09-13T05:56:57.637Z,80.38
2022-09-13T05:59:26.000Z,80.32
2022-09-13T06:01:54.349Z,80.06
2022-09-13T06:04:22.707Z,80.38
2022-09-13T06:06:52.625Z,80.06
2022-09-13T06:09:21.110Z,80.12
2022-09-13T06:11:49.381Z,80.02
2022-09-13T06:14:17.763Z,80.05
2022-09-13T06:16:46.012Z,80.14
2022-09-13T06:19:13.977Z,80.17
2022-09-13T06:21:42.108Z,79.89
2022-09-13T06:24:11.630Z,80.01
2022-09-13T06:26:40.064Z,80.10
2022-09-13T06:29:08.016Z,80.20
2022-09-13T06:31:38.791Z,80.33
2022-09-13T06:34:07.274Z,80.17
2022-09-13T06:36:35.386Z,80.45
2022-09-13T06:39:04.765Z,80.10
2022-09-13T06:41:34.123Z,79.48
2022-09-13T06:44:03.263Z,79.56
2022-09-13T06:46:33.334Z,79.11
2022-09-13T06:49:03.493Z,78.76
2022-09-13T06:51:32.668Z,77.73
2022-09-13T06:54:01.345Z,76.87
2022-09-13T06:56:32.446Z,76.49
2022-09-13T06:59:04.878Z,76.47
2022-09-13T07:01:34.608Z,76.06
2022-09-13T07:04:05.771Z,75.50
2022-09-13T07:06:35.700Z,75.46
2022-09-13T07:09:07.369Z,74.66
2022-09-13T07:11:36.975Z,74.55
2022-09-13T07:14:07.416Z,74.12
2022-09-13T07:16:37.516Z,73.63
2022-09-13T07:19:07.962Z,72.32
2022-09-13T07:21:36.882Z,72.03
2022-09-13T07:24:05.649Z,71.03
2022-09-13T07:26:34.434Z,70.53
2022-09-13T07:29:05.049Z,70.60
2022-09-13T07:31:36.582Z,70.59
2022-09-13T07:34:06.861Z,70.17
2022-09-13T07:36:37.777Z,70.55
2022-09-13T07:39:07.633Z,70.33
2022-09-13T07:41:38.585Z,69.67
2022-09-13T07:44:07.923Z,68.14
2022-09-13T07:46:43.830Z,67.41
2022-09-13T07:49:13.189Z,67.99
2022-09-13T07:51:43.500Z,67.72
2022-09-13T07:54:13.554Z,66.54
2022-09-13T07:56:42.717Z,66.01
2022-09-13T07:59:14.045Z,64.71
2022-09-13T08:01:44.901Z,64.23
2022-09-13T08:04:14.816Z,64.49
2022-09-13T08:06:43.639Z,64.35
2022-09-13T08:09:12.465Z,64.25
2022-09-13T08:11:43.007Z,63.36
2022-09-13T08:14:13.616Z,63.32
2022-09-13T08:16:43.441Z,62.76
2022-09-13T08:19:14.173Z,62.97
2022-09-13T08:21:43.639Z,61.69
2022-09-13T08:24:15.912Z,61.51
2022-09-13T08:26:44.457Z,60.70
2022-09-13T08:29:13.735Z,61.31
2022-09-13T08:31:43.177Z,60.12
2022-09-13T08:34:12.673Z,60.80
2022-09-13T08:36:41.415Z,60.76
2022-09-13T08:39:12.890Z,59.57
2022-09-13T08:42:07.628Z,59.86
2022-09-13T08:44:37.026Z,58.80
2022-09-13T08:47:25.767Z,59.54
2022-09-13T08:50:01.232Z,59.55
2022-09-13T08:52:32.000Z,58.63
2022-09-13T08:55:03.017Z,59.38
2022-09-13T08:57:37.433Z,57.90
2022-09-13T09:00:18.918Z,56.60
2022-09-13T09:03:03.696Z,55.58
2022-09-13T09:05:33.788Z,53.48
2022-09-13T09:08:04.810Z,52.03
2022-09-13T09:10:34.905Z,52.23
2022-09-13T09:13:07.582Z,52.91
2022-09-13T09:15:40.762Z,51.01
2022-09-13T09:18:15.382Z,50.86
2022-09-13T09:20:45.371Z,49.80
2022-09-13T09:23:21.312Z,48.26
2022-09-13T09:25:53.698Z,49.07
2022-09-13T09:28:21.703Z,49.32
2022-09-13T09:31:00.398Z,48.90
2022-09-13T09:33:44.772Z,48.49
2022-09-13T09:36:18.644Z,50.80
2022-09-13T09:38:46.847Z,51.77
2022-09-13T09:41:20.221Z,52.11
2022-09-13T09:43:53.631Z,50.47
2022-09-13T09:46:27.301Z,49.98
2022-09-13T09:49:25.874Z,51.14
2022-09-13T09:51:56.512Z,47.76
2022-09-13T09:54:29.114Z,49.08
2022-09-13T09:56:57.567Z,49.98
2022-09-13T09:59:32.530Z,48.85
2022-09-13T10:02:04.841Z,48.59
2022-09-13T10:04:35.954Z,48.64
2022-09-13T10:07:26.292Z,48.05
2022-09-13T10:10:00.154Z,48.38
2022-09-13T10:12:31.474Z,49.56
2022-09-13T10:15:08.284Z,47.21
2022-09-13T10:17:37.016Z,47.69
2022-09-13T10:20:22.186Z,47.38
2022-09-13T10:23:19.340Z,46.69
2022-09-13T10:25:59.288Z,46.74
2022-09-13T10:28:31.402Z,46.46
2022-09-13T10:31:03.225Z,47.45
2022-09-13T10:33:35.103Z,46.08
2022-09-13T10:36:08.994Z,46.60
2022-09-13T10:38:41.872Z,45.83
2022-09-13T10:41:25.655Z,45.16
2022-09-13T10:43:59.615Z,47.16
2022-09-13T10:46:31.578Z,46.43
2022-09-13T10:48:59.728Z,45.80
2022-09-13T10:51:36.780Z,46.64
2022-09-13T10:54:25.816Z,44.61
2022-09-13T10:56:53.871Z,43.26
2022-09-13T10:59:24.250Z,43.55
2022-09-13T11:02:04.557Z,43.10
2022-09-13T11:04:46.333Z,43.21
2022-09-13T11:07:36.945Z,42.37
2022-09-13T11:10:10.852Z,42.87
2022-09-13T11:12:44.749Z,41.54
2022-09-13T11:15:22.206Z,42.54
2022-09-13T11:18:16.556Z,43.44
2022-09-13T11:20:55.079Z,45.52
2022-09-13T11:24:06.083Z,44.12
2022-09-13T11:26:48.106Z,44.51
2022-09-13T11:29:31.076Z,44.20
2022-09-13T11:32:09.603Z,43.51
2022-09-13T11:34:49.419Z,42.86
2022-09-13T11:37:34.900Z,42.94
2022-09-13T11:40:27.045Z,43.21
2022-09-13T11:43:05.803Z,42.66
2022-09-13T11:45:40.900Z,42.91
2022-09-13T11:48:23.087Z,43.26
2022-09-13T11:50:59.538Z,43.66
2022-09-13T11:53:50.258Z,43.00
2022-09-13T11:56:25.026Z,43.28
2022-09-13T11:58:56.874Z,42.70
2022-09-13T12:01:29.951Z,42.81
2022-09-13T12:04:02.542Z,42.76
2022-09-13T12:06:35.399Z,42.57
2022-09-13T12:09:07.282Z,42.56
2022-09-13T12:11:40.252Z,42.92
2022-09-13T12:14:13.495Z,42.78
2022-09-13T12:16:45.382Z,42.32
2022-09-13T12:19:19.190Z,41.93
2022-09-13T12:21:49.845Z,41.92
2022-09-13T12:24:20.870Z,41.86
2022-09-13T12:26:55.700Z,41.98
2022-09-13T12:29:30.608Z,41.68
2022-09-13T12:32:01.760Z,43.25
2022-09-13T12:34:39.855Z,42.45
2022-09-13T12:37:25.665Z,41.35
2022-09-13T12:40:12.597Z,41.18
2022-09-13T12:43:08.077Z,40.76
2022-09-13T12:46:07.844Z,41.21
2022-09-13T12:49:23.409Z,43.85
2022-09-13T12:52:11.505Z,43.73
2022-09-13T12:55:05.657Z,43.98
2022-09-13T12:57:42.291Z,44.85
2022-09-13T13:00:34.939Z,45.25
2022-09-13T13:03:11.890Z,45.47
2022-09-13T13:05:43.637Z,45.99
2022-09-13T13:08:27.489Z,45.90
2022-09-13T13:11:04.938Z,45.95
2022-09-13T13:13:37.763Z,46.15
2022-09-13T13:16:23.856Z,45.07
2022-09-13T13:18:53.189Z,45.91
2022-09-13T13:21:40.053Z,45.01
2022-09-13T13:24:53.657Z,44.96
2022-09-13T13:27:37.018Z,45.24
2022-09-13T13:30:42.445Z,44.28
2022-09-13T13:33:19.640Z,43.77
2022-09-13T13:35:48.912Z,43.24
2022-09-13T13:38:50.437Z,43.89
2022-09-13T13:41:40.891Z,44.41
2022-09-13T13:44:46.326Z,44.47
2022-09-13T13:47:52.283Z,44.24
2022-09-13T13:50:21.807Z,43.55
2022-09-13T13:52:56.681Z,43.28
2022-09-13T13:55:46.977Z,43.50
2022-09-13T13:58:31.378Z,42.40
2022-09-13T14:01:04.212Z,42.71
2022-09-13T14:03:53.928Z,42.30
2022-09-13T14:06:32.349Z,42.07
2022-09-13T14:09:08.204Z,41.97
2022-09-13T14:11:59.316Z,42.55
2022-09-13T14:14:40.926Z,41.04
2022-09-13T14:17:35.039Z,41.31
2022-09-13T14:20:10.086Z,41.30
2022-09-13T14:22:39.748Z,41.02
2022-09-13T14:25:24.962Z,41.20
2022-09-13T14:27:59.380Z,40.76
2022-09-13T14:30:32.642Z,41.68
2022-09-13T14:33:01.861Z,41.69
2022-09-13T14:35:33.667Z,41.59
2022-09-13T14:38:14.786Z,41.02
2022-09-13T14:40:42.912Z,40.88
2022-09-13T14:43:21.580Z,40.48
2022-09-13T14:45:53.460Z,41.23
2022-09-13T14:48:25.646Z,42.12
2022-09-13T14:50:58.708Z,39.65
2022-09-13T14:53:30.961Z,38.48
2022-09-13T14:56:02.707Z,39.85
2022-09-13T14:58:37.077Z,39.21
2022-09-13T15:01:08.250Z,39.40
2022-09-13T15:03:37.299Z,38.97
2022-09-13T15:06:06.397Z,36.52
2022-09-13T15:08:49.001Z,35.16
2022-09-13T15:11:30.714Z,33.95
2022-09-13T15:14:27.861Z,34.81
2022-09-13T15:17:01.486Z,35.94
2022-09-13T15:19:40.774Z,37.04
2022-09-13T15:22:20.817Z,36.59
2022-09-13T15:24:52.361Z,37.53
2022-09-13T15:27:45.581Z,37.47
2022-09-13T15:30:23.461Z,36.45
2022-09-13T15:33:04.920Z,37.50
2022-09-13T15:35:37.796Z,36.45
2022-09-13T15:38:18.609Z,36.11
2022-09-13T15:40:58.290Z,35.66
2022-09-13T15:43:26.591Z,35.93
2022-09-13T15:45:54.830Z,36.03
2022-09-13T15:48:28.166Z,36.58
2022-09-13T15:51:07.438Z,36.30
2022-09-13T15:53:36.351Z,35.92
2022-09-13T15:56:07.452Z,35.53
2022-09-13T15:58:37.020Z,36.28
2022-09-13T16:01:05.578Z,37.17
2022-09-13T16:03:34.100Z,37.45
2022-09-13T16:06:02.184Z,37.51
2022-09-13T16:08:30.152Z,38.05
2022-09-13T16:10:58.140Z,37.87
2022-09-13T16:13:27.537Z,38.12
2022-09-13T16:15:58.060Z,36.56
2022-09-13T16:18:26.726Z,36.68
2022-09-13T16:20:54.643Z,36.51
2022-09-13T16:23:22.709Z,34.47
2022-09-13T16:25:55.732Z,35.09
2022-09-13T16:28:24.210Z,34.30
2022-09-13T16:30:54.755Z,34.95
2022-09-13T16:33:23.091Z,35.02
2022-09-13T16:35:51.997Z,35.85
2022-09-13T16:38:20.063Z,37.37
2022-09-13T16:40:49.029Z,37.71
2022-09-13T16:43:18.048Z,37.71
2022-09-13T16:45:46.048Z,38.30
2022-09-13T16:48:15.377Z,38.34
2022-09-13T16:50:43.725Z,38.28
2022-09-13T16:53:11.772Z,38.51
2022-09-13T16:55:40.054Z,39.25
2022-09-13T16:58:08.284Z,38.96
2022-09-13T17:00:36.267Z,39.20
2022-09-13T17:03:04.549Z,40.08
2022-09-13T17:05:33.950Z,40.17
2022-09-13T17:08:02.039Z,40.34
2022-09-13T17:10:30.169Z,40.77
2022-09-13T17:12:58.245Z,41.13
2022-09-13T17:15:26.290Z,40.40
2022-09-13T17:17:54.268Z,40.28
2022-09-13T17:20:22.682Z,41.20
2022-09-13T17:22:52.009Z,41.11
2022-09-13T17:25:20.858Z,41.48
2022-09-13T17:27:48.795Z,42.36
2022-09-13T17:30:17.045Z,41.47
2022-09-13T17:32:45.092Z,42.22
2022-09-13T17:35:13.176Z,42.39
2022-09-13T17:37:41.357Z,43.27
2022-09-13T17:40:11.218Z,43.72
2022-09-13T17:42:39.289Z,44.97
2022-09-13T17:45:07.769Z,44.36
2022-09-13T17:47:35.825Z,44.78
2022-09-13T17:50:03.973Z,44.84
2022-09-13T17:52:34.866Z,44.60
2022-09-13T17:55:04.332Z,44.99
2022-09-13T17:57:34.656Z,45.16
2022-09-13T18:00:03.564Z,45.70
2022-09-13T18:02:32.489Z,45.90
2022-09-13T18:05:05.297Z,45.98
2022-09-13T18:07:34.398Z,45.82
2022-09-13T18:10:02.398Z,46.19
2022-09-13T18:12:30.419Z,46.56
2022-09-13T18:14:59.905Z,47.85
2022-09-13T18:17:27.961Z,46.97
2022-09-13T18:19:55.888Z,47.44
2022-09-13T18:22:23.949Z,47.48
2022-09-13T18:24:52.592Z,47.91
2022-09-13T18:27:20.534Z,49.20
2022-09-13T18:29:48.820Z,50.69
2022-09-13T18:32:18.352Z,50.80
2022-09-13T18:34:47.041Z,51.14
2022-09-13T18:37:15.009Z,51.91
2022-09-13T18:39:43.107Z,52.38
2022-09-13T18:42:11.173Z,53.88
2022-09-13T18:44:39.156Z,53.38
2022-09-13T18:47:08.828Z,53.03
2022-09-13T18:49:38.309Z,53.04
2022-09-13T18:52:06.743Z,53.56
2022-09-13T18:54:34.811Z,54.52
2022-09-13T18:57:02.869Z,53.84
2022-09-13T18:59:32.166Z,53.02
2022-09-13T19:02:00.498Z,52.95
2022-09-13T19:04:28.522Z,52.71
2022-09-13T19:06:57.872Z,53.93
2022-09-13T19:09:26.176Z,54.42
2022-09-13T19:11:55.289Z,54.45
2022-09-13T19:14:25.407Z,54.13
2022-09-13T19:16:55.822Z,55.02
2022-09-13T19:19:24.182Z,55.44
2022-09-13T19:21:52.196Z,55.12
2022-09-13T19:24:22.013Z,54.94
2022-09-13T19:26:51.896Z,55.71
2022-09-13T19:29:21.969Z,53.83
2022-09-13T19:31:52.181Z,55.34
2022-09-13T19:34:21.959Z,55.92
2022-09-13T19:36:54.319Z,56.87
2022-09-13T19:39:28.376Z,56.64
2022-09-13T19:41:57.638Z,56.61
2022-09-13T19:44:25.620Z,57.23
2022-09-13T19:47:14.978Z,57.44
2022-09-13T19:49:41.678Z,58.28
2022-09-13T19:52:09.717Z,58.20
2022-09-13T19:54:39.086Z,56.87
2022-09-13T19:57:09.517Z,57.37
2022-09-13T19:59:37.529Z,58.30
2022-09-13T20:02:06.232Z,57.96
2022-09-13T20:04:34.357Z,57.50
2022-09-13T20:07:02.793Z,57.45
2022-09-13T20:09:32.049Z,58.11
2022-09-13T20:12:01.385Z,57.53
2022-09-13T20:14:29.401Z,57.57
2022-09-13T20:16:57.997Z,57.08
2022-09-13T20:19:45.109Z,57.62
2022-09-13T20:22:14.726Z,58.12
2022-09-13T20:24:43.278Z,58.49
2022-09-13T20:27:13.438Z,58.03
2022-09-13T20:29:41.556Z,57.89
2022-09-13T20:32:09.693Z,58.07
2022-09-13T20:34:37.828Z,58.66
2022-09-13T20:37:06.086Z,58.62
2022-09-13T20:39:34.014Z,59.12
2022-09-13T20:42:02.429Z,60.00
2022-09-13T20:44:31.743Z,59.39
2022-09-13T20:47:00.318Z,59.92
2022-09-13T20:49:29.615Z,60.17
2022-09-13T20:51:57.610Z,59.02
2022-09-13T20:54:25.627Z,58.81
2022-09-13T20:56:53.662Z,58.42
2022-09-13T20:59:22.852Z,58.36
2022-09-13T21:01:52.292Z,59.48
2022-09-13T21:04:21.080Z,60.70
2022-09-13T21:07:09.861Z,61.75
2022-09-13T21:09:40.322Z,62.96
2022-09-13T21:12:09.317Z,62.08
2022-09-13T21:14:37.242Z,62.02
2022-09-13T21:17:07.892Z,62.07
2022-09-13T21:19:36.230Z,63.40
2022-09-13T21:22:04.292Z,63.37
2022-09-13T21:24:32.620Z,62.47
2022-09-13T21:27:00.748Z,60.30
2022-09-13T21:29:29.067Z,60.96
2022-09-13T21:31:57.039Z,61.32
2022-09-13T21:34:27.378Z,62.27
2022-09-13T21:36:55.879Z,62.15
2022-09-13T21:39:24.324Z,62.17
2022-09-13T21:41:52.276Z,62.30
2022-09-13T21:44:20.272Z,62.72
2022-09-13T21:46:48.227Z,62.87
2022-09-13T21:49:17.250Z,62.04
2022-09-13T21:51:48.351Z,62.41
2022-09-13T21:54:19.019Z,61.99
2022-09-13T21:56:52.468Z,61.96
2022-09-13T21:59:22.193Z,61.94
2022-09-13T22:01:52.288Z,62.68
2022-09-13T22:04:22.481Z,61.24
2022-09-13T22:06:53.796Z,60.82
2022-09-13T22:09:26.341Z,61.60
2022-09-13T22:11:54.389Z,62.19
2022-09-13T22:14:22.606Z,62.30
2022-09-13T22:16:52.704Z,62.84
2022-09-13T22:19:23.458Z,62.96
2022-09-13T22:21:56.411Z,63.73
2022-09-13T22:24:25.871Z,63.19
2022-09-13T22:26:56.450Z,63.57
2022-09-13T22:29:25.120Z,64.11
2022-09-13T22:31:53.667Z,65.37
2022-09-13T22:34:24.033Z,66.42
2022-09-13T22:36:54.943Z,68.42
2022-09-13T22:39:24.761Z,68.78
2022-09-13T22:41:52.964Z,68.19
2022-09-13T22:44:21.057Z,68.95
2022-09-13T22:46:49.302Z,68.98
2022-09-13T22:49:18.984Z,69.02
2022-09-13T22:51:48.338Z,68.78
2022-09-13T22:54:19.449Z,69.95
2022-09-13T22:56:47.874Z,69.69
2022-09-13T22:59:18.496Z,69.14
2022-09-13T23:01:47.009Z,67.69
2022-09-13T23:04:15.258Z,67.47
2022-09-13T23:06:44.872Z,66.75
2022-09-13T23:09:15.101Z,66.78
2022-09-13T23:11:44.833Z,67.52
2022-09-13T23:14:14.820Z,67.04
2022-09-13T23:16:44.799Z,68.27
2022-09-13T23:19:13.950Z,67.59
2022-09-13T23:21:43.011Z,67.89
2022-09-13T23:24:13.831Z,67.38
2022-09-13T23:26:42.287Z,67.70
2022-09-13T23:29:15.168Z,67.14
2022-09-13T23:31:44.236Z,68.16
2022-09-13T23:34:14.308Z,68.12
2022-09-13T23:36:44.013Z,68.49
2022-09-13T23:39:16.596Z,68.55
2022-09-13T23:41:45.785Z,68.05
2022-09-13T23:44:15.572Z,66.68
2022-09-13T23:46:43.608Z,68.52
2022-09-13T23:49:11.823Z,68.09
2022-09-13T23:51:39.777Z,68.82
2022-09-13T23:54:08.337Z,68.78
2022-09-13T23:56:36.617Z,69.16
2022-09-13T23:59:06.294Z,70.10
